Ankeny, IA

1:29 PM CDT on August 20, 2014 (GMT -0500)
Ankeny IA, Cherry Glen | Change Station
CLOSE
Current Station
Personal Weather Station
Location: Ankeny, IA
Elevation: 998 ft
Nearby Weather Stations

Elev 998 ft 41.74 °N, 93.66 °W | Updated 12 minutes ago

Partly Cloudy
Partly Cloudy
71.6 °F
Feels Like 71.6 °F
N
7.8
Wind Variable Wind from SSW

Today
High -- | Low -- °F
--% Chance of Precip.
Yesterday
High -- | Low -- °F
Precip. -- in
6:28 AM 8:06 PM
Waning Crescent, 20% visible
Pressure 29.87 in
Visibility 10.0 miles
Clouds Few 7500 ft
Dew Point 71 °F
Humidity 99%
Rainfall 0.27 in
Snow Depth Not available.
UV 9 out of 12
Pollen 9.30 out of 12
Ozone Good
PM2.5 Good
Flu Activity Not available.
METAR KIKV 201815Z AUTO 18009KT 10SM FEW075 22/19 A2987 RMK AO2

More Conditions Fewer Conditions

Pressure 29.87 in
Visibility 10.0 miles
Clouds Few 7500 ft
Dew Point 71 °F
Humidity 99%
Rainfall 0.27 in
Snow Depth Not available.
UV 9 out of 12
Pollen 9.30 out of 12
Ozone Good
PM2.5 Good
Flu Activity Not available.
METAR KIKV 201815Z AUTO 18009KT 10SM FEW075 22/19 A2987 RMK AO2

More Conditions Fewer Conditions

10-Day Weather Forecast

Almanac

Astronomy

Aug. 20, 2014 Rise Set
Actual Time 6:28 AM CDT 8:06 PM CDT
Civil Twilight 5:58 AM CDT 8:36 PM CDT
Nautical Twilight 5:22 AM CDT 9:11 PM CDT
Astronomical Twilight 4:44 AM CDT 9:49 PM CDT
Moon 2:06 AM CDT 4:53 PM CDT
Length of Visible Light 14h 37m
Length of Day
13h 38m
Tomorrow will be 2m 33s shorter.
Waning Crescent, 20% of the Moon is Illuminated
Today
Waning Crescent
Aug 25
New
Sep 2
First Quarter
Sep 8
Full
Sep 15
Last Quarter

Today's Extremes

State Highs State Lows

Community

WunderPhotos

Upload Photos

1,745,704 photos uploaded!

WunderBlogs® & News

Nearby

Air Quality

  Air Quality AQ Index Pollutant
Yesterday Good
OZONE
Yesterday Good
PM2.5
Current Good
OZONE
Current Good
PM2.5
Wednesday Good
OZONE
Wednesday Good
PM2.5
Wednesday Good
CO
Wednesday Good
NO2
Thursday Good
OZONE
Thursday Good
PM2.5
Thursday Good
CO
Thursday Good
NO2

Snow Depth

Station Depth Elevation
No new snow has been reported.

Earthquake Activity

City Distance Mag. Time & Date
No recent earthquake activity has been reported nearby.
Minimum magnitude displayed is 2.5.

Coastal Water Temperatures

Place Temperature
No Stations Reporting

Nearby Weather Stations